Time;durP1;ratioP1;P1;durP2;ratioP2;P2;SDS_P1;SDS_P2;PMS_P1;PMS_P2;Temp;Humidity;BMP_temperature;BMP_pressure;BME280_temperature;BME280_humidity;BME280_pressure;Samples;Min_cycle;Max_cycle;Signal;HPM_P1;HPM_P2
2023/08/19 00:00:16;;;;;;;8.68;2.42;;;;;;;24.37;61.68;100118.63;10483834;28;20037;-73
2023/08/19 00:05:18;;;;;;;2.17;1.20;;;;;;;24.27;62.10;100119.44;10488478;28;20051;-73
2023/08/19 00:10:20;;;;;;;1.65;1.30;;;;;;;24.22;61.58;100127.66;10488659;28;20282;-70
2023/08/19 00:15:21;;;;;;;2.10;1.10;;;;;;;24.16;61.99;100123.25;10487402;28;20040;-73
2023/08/19 00:20:26;;;;;;;3.58;1.55;;;;;;;23.99;62.72;100128.97;10484157;28;20040;-72
2023/08/19 00:25:27;;;;;;;5.93;1.40;;;;;;;23.84;63.07;100129.78;10486012;28;20048;-72
2023/08/19 00:30:29;;;;;;;6.70;1.40;;;;;;;23.93;62.35;100128.16;10488160;28;20059;-72
2023/08/19 00:35:32;;;;;;;6.90;1.52;;;;;;;23.94;62.19;100134.47;10487771;28;20044;-74
2023/08/19 00:40:33;;;;;;;4.03;1.02;;;;;;;23.90;62.38;100138.88;10481472;28;20090;-74
2023/08/19 00:45:44;;;;;;;4.13;0.90;;;;;;;23.93;62.24;100133.66;10476037;28;20056;-71
2023/08/19 00:50:45;;;;;;;3.63;1.00;;;;;;;23.94;62.13;100138.03;10486265;28;20064;-71
2023/08/19 00:55:47;;;;;;;5.10;1.33;;;;;;;23.90;62.38;100150.66;10484360;28;20072;-73
2023/08/19 01:00:49;;;;;;;3.63;1.05;;;;;;;23.83;62.57;100132.78;10495150;28;20372;-72
2023/08/19 01:06:12;;;;;;;2.50;0.95;;;;;;;23.75;62.96;100136.84;10488613;28;20420;-73
2023/08/19 01:11:38;;;;;;;3.28;1.38;;;;;;;23.68;62.94;100134.34;10489621;28;20044;-76
2023/08/19 01:16:43;;;;;;;2.63;1.27;;;;;;;23.61;63.26;100127.47;10486083;28;20100;-72
2023/08/19 01:21:45;;;;;;;2.05;1.17;;;;;;;23.58;63.23;100125.25;10483109;28;20086;-72
2023/08/19 01:26:46;;;;;;;8.13;1.60;;;;;;;23.54;63.11;100125.78;10484530;28;20084;-73
2023/08/19 01:31:48;;;;;;;4.72;1.15;;;;;;;23.30;63.86;100133.63;10498259;28;20079;-73
2023/08/19 01:36:56;;;;;;;2.33;1.23;;;;;;;23.38;63.82;100134.22;10492430;28;20101;-73
2023/08/19 01:41:58;;;;;;;4.07;1.02;;;;;;;23.40;63.71;100141.09;10490749;28;20241;-73
2023/08/19 01:47:12;;;;;;;3.05;1.25;;;;;;;23.39;63.56;100130.38;10488823;28;20067;-74
2023/08/19 01:52:14;;;;;;;6.43;1.45;;;;;;;23.37;63.98;100119.66;10494361;28;20059;-74
2023/08/19 01:57:15;;;;;;;2.53;1.10;;;;;;;23.36;63.92;100118.84;10480621;28;20124;-71
2023/08/19 02:02:17;;;;;;;4.93;1.23;;;;;;;23.34;63.97;100128.41;10493961;28;20112;-73
2023/08/19 02:07:18;;;;;;;5.60;1.20;;;;;;;23.29;63.90;100131.97;10498657;28;20111;-72
2023/08/19 02:12:20;;;;;;;1.52;1.20;;;;;;;23.29;63.95;100131.16;10490860;28;20060;-72
2023/08/19 02:17:21;;;;;;;2.67;1.20;;;;;;;23.26;63.83;100129.78;10489597;28;20100;-73
2023/08/19 02:22:22;;;;;;;6.63;1.30;;;;;;;23.19;64.23;100122.88;10489806;28;20049;-74
2023/08/19 02:27:25;;;;;;;2.60;1.20;;;;;;;23.15;64.23;100122.56;10489221;28;20110;-74
2023/08/19 02:32:27;;;;;;;3.35;1.73;;;;;;;23.10;64.35;100128.84;10491782;28;20415;-74
2023/08/19 02:37:28;;;;;;;4.53;1.02;;;;;;;23.10;64.24;100117.88;10491823;28;20071;-73
2023/08/19 02:42:30;;;;;;;3.67;1.60;;;;;;;23.07;64.46;100118.41;10487817;28;20052;-75
2023/08/19 02:47:31;;;;;;;4.35;1.17;;;;;;;23.04;64.63;100118.09;10490299;28;20171;-73
2023/08/19 02:52:33;;;;;;;3.83;1.20;;;;;;;22.97;65.05;100115.56;10493899;28;20048;-74
2023/08/19 02:57:35;;;;;;;3.35;2.03;;;;;;;22.95;64.93;100113.09;10490228;28;20071;-73
2023/08/19 03:02:36;;;;;;;5.22;1.40;;;;;;;22.99;64.84;100110.66;10489523;28;20120;-71
2023/08/19 03:07:38;;;;;;;4.75;2.33;;;;;;;22.78;65.52;100118.72;10493954;28;20048;-73
2023/08/19 03:12:39;;;;;;;4.63;1.33;;;;;;;22.65;65.77;100124.66;10490804;28;20116;-72
2023/08/19 03:17:40;;;;;;;5.68;1.45;;;;;;;22.71;65.74;100114.53;10487545;28;20116;-75
2023/08/19 03:22:42;;;;;;;6.65;1.85;;;;;;;22.71;65.45;100120.88;10490803;28;20198;-72
2023/08/19 03:27:43;;;;;;;3.13;1.30;;;;;;;22.76;65.32;100111.84;10489349;28;20048;-72
2023/08/19 03:32:45;;;;;;;1.30;1.15;;;;;;;22.81;65.21;100116.53;10490951;28;20107;-73
2023/08/19 03:37:46;;;;;;;2.38;1.38;;;;;;;22.74;65.46;100123.06;10488920;28;20349;-75
2023/08/19 03:42:48;;;;;;;3.38;1.15;;;;;;;22.83;65.10;100117.09;10490589;28;20105;-72
2023/08/19 03:47:49;;;;;;;3.08;1.30;;;;;;;22.87;65.12;100113.59;10490200;28;20136;-72
2023/08/19 03:52:51;;;;;;;1.58;1.00;;;;;;;22.86;65.19;100113.84;10486864;28;20045;-73
2023/08/19 03:57:52;;;;;;;3.05;0.90;;;;;;;22.90;65.08;100120.44;10488131;28;20309;-72
2023/08/19 04:02:53;;;;;;;6.82;1.83;;;;;;;22.91;65.13;100119.38;10487445;28;20060;-72
2023/08/19 04:07:55;;;;;;;4.22;2.00;;;;;;;22.92;65.06;100123.75;10494171;28;20312;-73
2023/08/19 04:12:56;;;;;;;2.75;1.50;;;;;;;22.85;65.13;100125.88;10490552;28;20506;-75
2023/08/19 04:17:58;;;;;;;8.38;1.60;;;;;;;22.64;65.73;100139.44;10489786;28;20056;-71
2023/08/19 04:22:59;;;;;;;3.95;1.63;;;;;;;22.66;65.72;100140.00;10486769;28;20066;-72
2023/08/19 04:28:01;;;;;;;6.25;1.20;;;;;;;22.72;65.59;100130.72;10488298;28;20120;-72
2023/08/19 04:33:03;;;;;;;5.15;1.42;;;;;;;22.75;65.48;100126.66;10498171;28;20331;-71
2023/08/19 04:38:04;;;;;;;6.38;1.38;;;;;;;22.78;65.41;100121.47;10476571;28;20076;-71
2023/08/19 04:43:08;;;;;;;5.72;1.25;;;;;;;22.80;65.38;100123.13;10484850;28;20106;-72
2023/08/19 04:48:09;;;;;;;1.20;1.00;;;;;;;22.85;65.49;100132.22;10488125;28;20044;-71
2023/08/19 04:53:11;;;;;;;3.67;1.40;;;;;;;22.94;65.35;100138.03;10487399;28;20052;-72
2023/08/19 04:58:12;;;;;;;3.88;1.17;;;;;;;23.00;65.06;100134.22;10488108;28;20072;-72
2023/08/19 05:03:14;;;;;;;4.88;1.77;;;;;;;23.06;64.98;100133.19;10489621;28;20104;-72
2023/08/19 05:08:18;;;;;;;3.75;1.58;;;;;;;23.12;65.03;100125.84;10488618;28;20075;-72
2023/08/19 05:13:19;;;;;;;7.35;1.42;;;;;;;23.14;64.79;100140.09;10491859;28;20120;-71
2023/08/19 05:18:20;;;;;;;4.22;1.25;;;;;;;23.22;65.03;100133.28;10495716;28;20052;-71
2023/08/19 05:23:22;;;;;;;4.10;1.65;;;;;;;23.35;64.68;100144.63;10481139;28;20075;-71
2023/08/19 05:28:25;;;;;;;4.38;1.45;;;;;;;23.46;64.60;100142.78;10504455;28;20044;-72
2023/08/19 05:33:27;;;;;;;3.35;1.23;;;;;;;23.58;64.55;100148.03;10489691;28;20398;-72
2023/08/19 05:38:28;;;;;;;4.72;1.95;;;;;;;23.69;64.41;100157.94;10489272;28;20344;-72
2023/08/19 05:43:30;;;;;;;6.25;1.38;;;;;;;23.74;64.14;100157.97;10492366;28;20313;-71
2023/08/19 05:48:31;;;;;;;3.03;1.23;;;;;;;23.94;63.93;100167.44;10493340;28;20336;-72
2023/08/19 05:53:33;;;;;;;2.38;1.15;;;;;;;24.00;63.76;100165.53;10488785;28;20048;-72
2023/08/19 05:58:35;;;;;;;2.20;1.63;;;;;;;24.11;63.77;100172.69;10494653;28;20051;-72
2023/08/19 06:03:36;;;;;;;3.92;1.40;;;;;;;24.21;63.28;100169.97;10478165;28;20108;-72
2023/08/19 06:08:38;;;;;;;2.30;1.10;;;;;;;24.30;63.39;100179.31;10489154;28;20052;-71
2023/08/19 06:13:39;;;;;;;5.90;1.20;;;;;;;24.42;63.01;100179.06;10491581;28;20060;-72
2023/08/19 06:18:41;;;;;;;3.17;1.30;;;;;;;24.55;63.17;100191.50;10492727;28;20094;-71
2023/08/19 06:23:42;;;;;;;1.77;1.30;;;;;;;24.63;63.27;100198.38;10494333;28;20053;-72
2023/08/19 06:28:44;;;;;;;4.45;1.42;;;;;;;24.73;63.02;100199.19;10497540;28;20071;-70
2023/08/19 06:33:45;;;;;;;6.00;1.30;;;;;;;24.85;63.53;100211.88;10496353;28;20097;-72
2023/08/19 06:38:51;;;;;;;2.38;1.30;;;;;;;24.95;63.11;100214.59;10493032;28;20059;-73
2023/08/19 06:43:57;;;;;;;2.13;1.20;;;;;;;25.04;62.88;100229.47;10487290;28;20051;-72
2023/08/19 06:48:59;;;;;;;4.03;1.40;;;;;;;25.16;62.83;100237.44;10491987;28;20063;-72
2023/08/19 06:54:00;;;;;;;3.17;1.13;;;;;;;25.28;62.91;100224.25;10492097;28;20106;-71
2023/08/19 06:59:10;;;;;;;1.30;1.17;;;;;;;25.41;62.75;100231.09;10489283;28;20051;-71
2023/08/19 07:04:13;;;;;;;2.83;1.08;;;;;;;25.63;62.06;100218.94;10490922;28;20345;-72
2023/08/19 07:09:16;;;;;;;1.92;1.30;;;;;;;25.88;61.80;100218.03;10496392;28;20053;-74
2023/08/19 07:14:18;;;;;;;1.92;1.10;;;;;;;26.16;60.57;100219.31;10489693;28;20424;-76
2023/08/19 07:19:27;;;;;;;1.90;1.10;;;;;;;26.28;59.82;100221.72;10494668;28;20111;-72
2023/08/19 07:24:29;;;;;;;3.40;1.10;;;;;;;26.21;58.50;100237.78;10507935;28;20566;-74
2023/08/19 07:29:31;;;;;;;2.60;1.00;;;;;;;26.41;57.72;100234.06;10489289;28;20067;-72
2023/08/19 07:34:32;;;;;;;2.47;1.02;;;;;;;26.43;56.81;100240.13;10473488;28;20060;-73
2023/08/19 07:39:34;;;;;;;4.20;1.05;;;;;;;26.55;56.29;100240.59;10490007;28;20395;-73
2023/08/19 07:44:35;;;;;;;5.85;1.20;;;;;;;26.71;56.25;100238.59;10495605;28;20060;-71
2023/08/19 07:49:38;;;;;;;2.15;1.38;;;;;;;26.93;55.67;100238.16;10510065;28;20056;-71
2023/08/19 07:54:40;;;;;;;2.42;1.30;;;;;;;27.02;55.57;100246.66;10495461;28;20357;-71
2023/08/19 07:59:42;;;;;;;1.70;1.38;;;;;;;27.00;55.61;100262.66;10490434;28;20060;-73
2023/08/19 08:04:44;;;;;;;3.35;1.30;;;;;;;27.12;55.51;100263.13;10495506;28;20108;-74
2023/08/19 08:09:45;;;;;;;2.83;0.98;;;;;;;27.41;54.74;100263.16;10480501;28;20071;-75
2023/08/19 08:14:47;;;;;;;3.80;1.77;;;;;;;27.63;54.54;100251.63;10490603;28;20315;-72
2023/08/19 08:19:48;;;;;;;5.93;1.30;;;;;;;27.90;54.67;100244.69;10485393;28;20124;-73
2023/08/19 08:24:49;;;;;;;9.98;1.30;;;;;;;28.13;54.48;100243.03;10490399;28;20067;-72
2023/08/19 08:29:51;;;;;;;1.85;1.65;;;;;;;28.31;53.84;100246.94;10485853;28;20052;-73
2023/08/19 08:34:52;;;;;;;3.78;1.60;;;;;;;28.54;53.37;100242.53;10491681;28;20229;-74
2023/08/19 08:39:54;;;;;;;2.83;1.27;;;;;;;28.74;53.41;100243.34;10478465;28;20048;-73
2023/08/19 08:44:56;;;;;;;1.50;1.40;;;;;;;28.88;52.90;100249.75;10476527;28;20063;-74
2023/08/19 08:49:58;;;;;;;5.15;1.48;;;;;;;29.03;53.00;100246.72;10499239;28;20045;-71
2023/08/19 08:55:01;;;;;;;2.70;1.42;;;;;;;29.27;51.55;100256.88;10480719;28;20044;-71
2023/08/19 09:00:05;;;;;;;5.40;1.05;;;;;;;29.48;51.73;100246.25;10480875;28;20114;-71
2023/08/19 09:05:08;;;;;;;3.33;1.40;;;;;;;29.73;51.17;100250.50;10473337;28;20048;-72
2023/08/19 09:10:14;;;;;;;6.05;1.27;;;;;;;30.19;49.68;100251.53;10490175;28;20113;-72
2023/08/19 09:15:17;;;;;;;6.38;1.30;;;;;;;30.56;48.95;100244.09;10488312;28;20040;-71
2023/08/19 09:20:19;;;;;;;2.38;1.45;;;;;;;30.82;48.61;100253.44;10492295;28;20045;-72
2023/08/19 09:25:21;;;;;;;2.55;1.00;;;;;;;31.21;47.01;100249.16;10486964;28;20116;-72
2023/08/19 09:30:30;;;;;;;5.57;1.10;;;;;;;31.51;46.55;100241.19;10487211;28;20119;-71
2023/08/19 09:35:38;;;;;;;5.40;1.33;;;;;;;31.73;45.71;100236.72;10486187;28;20373;-71
2023/08/19 09:41:02;;;;;;;3.47;1.17;;;;;;;31.75;45.51;100229.69;10483034;28;20052;-72
2023/08/19 09:46:03;;;;;;;1.75;1.40;;;;;;;31.99;44.52;100243.19;10484735;28;20041;-73
2023/08/19 09:51:08;;;;;;;2.42;1.20;;;;;;;32.17;43.86;100234.88;10493426;28;20044;-72
2023/08/19 09:56:20;;;;;;;4.37;1.23;;;;;;;32.15;43.51;100235.25;10504261;28;20070;-72
2023/08/19 10:01:22;;;;;;;2.55;1.42;;;;;;;32.36;43.43;100218.72;10491511;28;20440;-71
2023/08/19 10:06:26;;;;;;;4.63;1.27;;;;;;;32.41;42.67;100224.13;10491050;28;20287;-71
2023/08/19 10:11:30;;;;;;;6.47;1.77;;;;;;;32.51;42.57;100230.53;10490070;28;20157;-71
2023/08/19 10:16:38;;;;;;;5.25;2.17;;;;;;;32.48;42.51;100239.53;10474308;28;20040;-71
2023/08/19 10:21:40;;;;;;;4.63;1.50;;;;;;;32.19;42.52;100255.69;10492958;28;20041;-70
2023/08/19 10:26:46;;;;;;;3.33;1.20;;;;;;;32.20;42.60;100262.88;10495951;28;20040;-71
2023/08/19 10:31:47;;;;;;;3.78;1.58;;;;;;;32.18;42.41;100273.50;10495744;28;20349;-71
2023/08/19 10:37:09;;;;;;;3.92;1.45;;;;;;;32.26;42.82;100255.22;10491198;28;20069;-71
2023/08/19 10:42:13;;;;;;;3.85;1.63;;;;;;;32.30;42.13;100255.38;10490305;28;20407;-71
2023/08/19 10:47:18;;;;;;;1.95;1.48;;;;;;;32.49;41.99;100242.00;10487927;28;20064;-70
2023/08/19 10:52:20;;;;;;;3.63;1.13;;;;;;;32.68;41.67;100257.56;10486415;28;20055;-70
2023/08/19 10:57:24;;;;;;;9.65;1.30;;;;;;;32.83;41.28;100254.28;10498066;28;20053;-71
2023/08/19 11:02:27;;;;;;;4.68;2.17;;;;;;;33.10;40.64;100266.28;10489255;28;20059;-71
2023/08/19 11:07:29;;;;;;;5.55;1.33;;;;;;;33.09;40.74;100259.88;10488211;28;20144;-71
2023/08/19 11:12:30;;;;;;;4.13;2.35;;;;;;;33.54;40.73;100266.97;10486559;28;20049;-71
2023/08/19 11:17:32;;;;;;;2.97;1.65;;;;;;;33.85;39.99;100260.31;10486618;28;20053;-71
2023/08/19 11:22:45;;;;;;;3.17;1.70;;;;;;;33.82;40.66;100269.38;10492238;28;20053;-71
2023/08/19 11:27:47;;;;;;;4.75;1.58;;;;;;;33.91;40.32;100270.16;10481554;28;20367;-70
2023/08/19 11:32:51;;;;;;;3.58;1.75;;;;;;;34.06;39.73;100277.13;10495460;28;20403;-70
2023/08/19 11:37:52;;;;;;;3.88;1.63;;;;;;;34.23;39.31;100282.63;10490490;28;20088;-72
2023/08/19 11:43:04;;;;;;;2.95;1.67;;;;;;;34.41;38.54;100294.50;10489755;28;20056;-72
2023/08/19 11:48:08;;;;;;;4.28;1.52;;;;;;;34.37;38.47;100307.50;10490303;28;20048;-71
2023/08/19 11:53:26;;;;;;;3.13;1.60;;;;;;;34.22;39.49;100294.94;10513816;28;20041;-70
2023/08/19 11:58:52;;;;;;;2.15;1.45;;;;;;;33.88;40.06;100298.69;10532073;28;20044;-72
2023/08/19 12:03:54;;;;;;;4.70;1.90;;;;;;;33.75;40.07;100303.31;10531231;28;20047;-72
2023/08/19 12:08:56;;;;;;;4.43;1.33;;;;;;;33.76;39.98;100297.41;10526476;28;20069;-72
2023/08/19 12:13:58;;;;;;;7.70;1.55;;;;;;;33.77;39.95;100296.28;10511358;28;20053;-72
2023/08/19 12:18:59;;;;;;;6.38;1.75;;;;;;;33.61;39.45;100299.91;10536429;28;20048;-71
2023/08/19 12:24:01;;;;;;;4.95;2.03;;;;;;;33.45;40.25;100305.19;10515649;28;20041;-71
2023/08/19 12:29:02;;;;;;;2.38;1.55;;;;;;;33.17;40.65;100306.38;10526238;28;20074;-72
2023/08/19 12:34:04;;;;;;;4.20;2.10;;;;;;;33.14;40.66;100304.28;10533965;28;20249;-71
2023/08/19 12:39:05;;;;;;;4.97;1.95;;;;;;;33.01;40.76;100313.59;10525406;28;20044;-71
2023/08/19 12:44:07;;;;;;;6.53;2.25;;;;;;;32.77;41.40;100328.00;10530599;28;20067;-72
2023/08/19 12:49:08;;;;;;;2.28;1.45;;;;;;;32.76;41.54;100332.75;10530709;28;20318;-74
2023/08/19 12:54:10;;;;;;;4.47;2.33;;;;;;;32.77;41.88;100348.31;10522977;28;20356;-72
2023/08/19 12:59:12;;;;;;;3.78;1.73;;;;;;;32.63;42.34;100361.56;10491940;28;20068;-73
2023/08/19 13:04:13;;;;;;;3.70;1.85;;;;;;;32.64;42.66;100368.75;10486518;28;20068;-72
2023/08/19 13:09:16;;;;;;;3.15;1.70;;;;;;;32.29;43.20;100381.72;10489087;28;20252;-73
2023/08/19 13:14:17;;;;;;;3.78;2.63;;;;;;;32.15;43.55;100384.59;10496044;28;20392;-73
2023/08/19 13:19:19;;;;;;;3.83;2.20;;;;;;;32.10;43.24;100391.13;10488811;28;20045;-73
2023/08/19 13:24:20;;;;;;;4.45;2.33;;;;;;;31.93;43.52;100394.63;10476652;28;20276;-73
2023/08/19 13:29:22;;;;;;;9.35;2.42;;;;;;;31.91;43.57;100399.69;10499181;28;20094;-73
2023/08/19 13:34:23;;;;;;;2.95;2.28;;;;;;;32.02;43.87;100391.91;10494737;28;20112;-72
2023/08/19 13:39:27;;;;;;;4.75;2.30;;;;;;;32.22;43.81;100394.13;10493918;28;20131;-72
2023/08/19 13:44:29;;;;;;;5.20;2.28;;;;;;;32.21;43.82;100397.25;10494728;28;20148;-72
2023/08/19 13:49:30;;;;;;;3.97;2.30;;;;;;;32.03;44.12;100393.53;10500041;28;20103;-71
2023/08/19 13:54:31;;;;;;;5.32;2.10;;;;;;;32.19;44.17;100403.13;10498525;28;20063;-73
2023/08/19 13:59:33;;;;;;;3.65;2.28;;;;;;;32.29;44.18;100407.59;10493762;28;20068;-73
2023/08/19 14:04:34;;;;;;;4.80;2.03;;;;;;;32.27;44.38;100411.81;10491933;28;20057;-73
2023/08/19 14:09:35;;;;;;;3.20;2.38;;;;;;;32.14;44.48;100411.59;10484240;28;20348;-73
2023/08/19 14:14:37;;;;;;;4.90;2.13;;;;;;;32.03;44.70;100407.47;10491119;28;20116;-72
2023/08/19 14:19:42;;;;;;;4.10;1.80;;;;;;;32.80;44.69;100391.38;10485976;28;20094;-71
2023/08/19 14:24:43;;;;;;;3.97;2.25;;;;;;;32.88;44.71;100390.59;10490848;28;20057;-72
2023/08/19 14:29:45;;;;;;;3.78;2.33;;;;;;;32.90;45.27;100388.31;10494755;28;20044;-73
2023/08/19 14:34:46;;;;;;;3.42;2.15;;;;;;;33.11;45.35;100385.72;10491402;28;20052;-72
2023/08/19 14:39:47;;;;;;;3.90;2.42;;;;;;;33.07;44.84;100386.69;10491492;28;20053;-73
2023/08/19 14:44:50;;;;;;;3.42;2.00;;;;;;;33.16;44.71;100379.19;10488946;28;20360;-73
2023/08/19 14:49:52;;;;;;;4.05;2.35;;;;;;;33.03;43.64;100397.66;10491652;28;20051;-72
2023/08/19 14:54:53;;;;;;;6.03;2.63;;;;;;;33.04;44.23;100398.47;10491455;28;20056;-71
2023/08/19 14:59:55;;;;;;;3.88;2.95;;;;;;;33.18;44.06;100399.19;10499004;28;20120;-73
2023/08/19 15:04:56;;;;;;;4.85;2.50;;;;;;;33.15;43.71;100399.81;10492444;28;20061;-71
2023/08/19 15:09:57;;;;;;;9.45;2.28;;;;;;;32.86;44.45;100406.81;10490317;28;20262;-73
2023/08/19 15:14:59;;;;;;;8.27;2.35;;;;;;;32.75;44.87;100408.25;10495240;28;20315;-74
2023/08/19 15:20:00;;;;;;;4.05;2.65;;;;;;;32.69;45.18;100404.00;10491652;28;20674;-71
2023/08/19 15:25:03;;;;;;;3.70;2.25;;;;;;;32.71;45.04;100418.41;10484418;28;20056;-74
2023/08/19 15:30:05;;;;;;;6.43;2.00;;;;;;;32.63;45.26;100420.03;10487530;28;20045;-73
2023/08/19 15:35:07;;;;;;;4.78;2.40;;;;;;;32.68;45.16;100421.81;10489953;28;20416;-70
2023/08/19 15:40:09;;;;;;;4.15;2.20;;;;;;;32.68;45.41;100419.84;10490426;28;20415;-72
2023/08/19 15:45:11;;;;;;;4.68;2.60;;;;;;;32.74;45.71;100414.97;10491096;28;20064;-72
2023/08/19 15:50:14;;;;;;;4.72;1.95;;;;;;;32.45;45.56;100430.25;10485622;28;20068;-72
2023/08/19 15:55:16;;;;;;;2.55;2.28;;;;;;;32.29;46.33;100429.84;10487935;28;20075;-73
2023/08/19 16:00:17;;;;;;;8.05;2.42;;;;;;;32.27;46.39;100437.72;10494277;28;20060;-71
2023/08/19 16:05:19;;;;;;;6.63;2.70;;;;;;;32.20;46.45;100426.22;10492068;28;20051;-72
2023/08/19 16:10:20;;;;;;;4.50;2.63;;;;;;;32.21;47.21;100400.03;10488828;28;20059;-72
2023/08/19 16:15:22;;;;;;;5.20;3.10;;;;;;;32.05;49.03;100408.00;10489392;28;20059;-72
2023/08/19 16:20:23;;;;;;;4.80;2.90;;;;;;;31.84;50.08;100404.88;10469030;28;20581;-70
2023/08/19 16:25:25;;;;;;;3.03;2.72;;;;;;;31.89;50.27;100415.84;10492672;28;20052;-70
2023/08/19 16:30:26;;;;;;;9.05;3.08;;;;;;;31.94;50.32;100426.84;10508694;28;20077;-71
2023/08/19 16:35:28;;;;;;;6.10;3.00;;;;;;;31.94;49.21;100426.03;10537737;28;20052;-72
2023/08/19 16:40:33;;;;;;;9.32;3.45;;;;;;;32.00;48.68;100431.16;10513696;28;20074;-71
2023/08/19 16:45:34;;;;;;;6.68;3.97;;;;;;;32.01;48.44;100452.28;10521021;28;20048;-71
2023/08/19 16:50:35;;;;;;;5.03;2.78;;;;;;;31.94;48.78;100448.28;10514330;28;20064;-71
2023/08/19 16:55:37;;;;;;;4.43;2.92;;;;;;;31.82;48.50;100452.47;10530418;28;20060;-71
2023/08/19 17:00:38;;;;;;;4.95;3.38;;;;;;;31.56;49.18;100452.28;10531635;28;20071;-70
2023/08/19 17:05:40;;;;;;;6.15;4.85;;;;;;;31.49;49.14;100448.28;10533213;28;20044;-71
2023/08/19 17:10:42;;;;;;;5.05;3.92;;;;;;;31.49;49.02;100448.28;10503525;28;20040;-71
2023/08/19 17:15:43;;;;;;;7.53;4.25;;;;;;;31.20;49.21;100457.78;10536570;28;20044;-71
2023/08/19 17:20:45;;;;;;;10.02;7.40;;;;;;;31.23;49.53;100457.19;10505551;28;20061;-72
2023/08/19 17:25:46;;;;;;;10.60;4.75;;;;;;;30.99;50.30;100457.44;10521107;28;20071;-71
2023/08/19 17:30:50;;;;;;;5.00;3.05;;;;;;;30.91;50.74;100458.19;10492897;23;20046;-60
2023/08/19 17:35:52;;;;;;;6.40;3.08;;;;;;;30.95;50.89;100462.78;10406874;28;20149;-60
2023/08/19 17:41:00;;;;;;;14.32;7.97;;;;;;;31.08;50.74;100444.44;10402082;28;20041;-60
2023/08/19 17:46:03;;;;;;;6.93;4.80;;;;;;;31.07;50.86;100462.25;10395831;28;20520;-59
2023/08/19 17:51:04;;;;;;;7.97;2.80;;;;;;;30.82;51.17;100471.91;10402736;28;20145;-60
2023/08/19 17:56:09;;;;;;;5.13;2.35;;;;;;;30.58;51.13;100486.81;10405637;28;20053;-61
2023/08/19 18:01:11;;;;;;;9.05;3.20;;;;;;;30.44;51.77;100495.13;10404329;28;20079;-61
2023/08/19 18:06:12;;;;;;;4.78;2.00;;;;;;;30.28;50.90;100495.69;10408522;28;20075;-61
2023/08/19 18:11:14;;;;;;;5.70;2.17;;;;;;;30.13;50.79;100502.31;10404565;28;20784;-60
2023/08/19 18:16:15;;;;;;;2.35;1.92;;;;;;;30.08;50.03;100499.66;10395609;28;20056;-61
2023/08/19 18:21:17;;;;;;;4.18;1.50;;;;;;;30.07;49.64;100503.53;10412371;28;20042;-60
2023/08/19 18:26:18;;;;;;;4.97;1.63;;;;;;;29.95;49.91;100496.50;10414025;28;20049;-61
2023/08/19 18:31:20;;;;;;;5.95;1.63;;;;;;;29.91;49.20;100502.97;10401722;28;20060;-61
2023/08/19 18:36:21;;;;;;;4.43;1.52;;;;;;;29.60;49.13;100500.63;10412833;28;20060;-61
2023/08/19 18:41:23;;;;;;;5.28;1.63;;;;;;;29.55;48.72;100504.31;10414859;28;20052;-61
2023/08/19 18:46:25;;;;;;;4.22;1.30;;;;;;;29.39;48.82;100503.72;10391688;28;20685;-63
2023/08/19 18:51:26;;;;;;;5.22;2.55;;;;;;;29.30;48.89;100508.28;10421407;28;20060;-61
2023/08/19 18:56:28;;;;;;;1.90;1.27;;;;;;;29.32;48.70;100514.34;10407831;28;20052;-60
2023/08/19 19:01:30;;;;;;;2.63;1.33;;;;;;;29.34;48.08;100522.34;10427017;28;20053;-62
2023/08/19 19:06:32;;;;;;;8.25;2.90;;;;;;;29.31;47.92;100528.50;10526363;23;20041;-64
2023/08/19 19:11:33;;;;;;;3.22;1.90;;;;;;;29.12;48.62;100534.81;10488079;28;20096;-62
2023/08/19 19:16:34;;;;;;;2.75;1.92;;;;;;;28.76;48.87;100549.03;10478423;28;20045;-62
2023/08/19 19:21:36;;;;;;;4.63;2.38;;;;;;;28.74;48.99;100544.91;10459951;28;20040;-63
2023/08/19 19:26:37;;;;;;;3.42;1.88;;;;;;;28.75;48.78;100529.94;10449986;28;20413;-61
2023/08/19 19:31:39;;;;;;;5.68;2.25;;;;;;;28.62;49.13;100520.41;10468117;28;20112;-61
2023/08/19 19:36:40;;;;;;;2.92;2.35;;;;;;;28.56;49.01;100530.72;10469570;28;20048;-62
2023/08/19 19:41:42;;;;;;;3.45;1.30;;;;;;;28.56;48.76;100522.41;10471012;28;20044;-59
2023/08/19 19:46:43;;;;;;;2.88;1.90;;;;;;;28.50;49.51;100529.09;10455486;28;20040;-61
2023/08/19 19:51:45;;;;;;;6.18;1.90;;;;;;;28.45;49.56;100541.00;10459275;28;20048;-59
2023/08/19 19:56:47;;;;;;;4.70;1.83;;;;;;;28.32;49.64;100554.69;10462537;28;20045;-61
2023/08/19 20:01:50;;;;;;;5.55;3.00;;;;;;;28.01;50.55;100560.47;10440309;28;20058;-60
2023/08/19 20:06:52;;;;;;;3.83;2.50;;;;;;;27.97;50.39;100564.94;10450903;28;20049;-61
2023/08/19 20:11:53;;;;;;;7.47;2.30;;;;;;;27.93;50.63;100556.38;10449130;28;20045;-60
2023/08/19 20:16:55;;;;;;;5.90;3.45;;;;;;;27.91;51.02;100560.56;10446730;28;20367;-61
2023/08/19 20:21:57;;;;;;;5.63;3.22;;;;;;;27.76;51.26;100566.97;10444687;28;20048;-59
2023/08/19 20:26:59;;;;;;;8.60;4.40;;;;;;;27.51;52.37;100568.78;10440223;28;20033;-59
2023/08/19 20:32:00;;;;;;;7.45;4.15;;;;;;;27.41;52.46;100585.38;10433497;28;20048;-60
2023/08/19 20:37:03;;;;;;;9.25;3.88;;;;;;;27.35;52.63;100579.06;10445750;28;20033;-59
2023/08/19 20:42:05;;;;;;;6.40;4.65;;;;;;;27.31;53.02;100566.91;10421686;28;20506;-59
2023/08/19 20:47:06;;;;;;;13.40;4.68;;;;;;;27.21;53.65;100570.53;10472009;28;20037;-59
2023/08/19 20:52:08;;;;;;;4.32;3.25;;;;;;;27.16;53.36;100576.06;10486188;28;20044;-59
2023/08/19 20:57:09;;;;;;;8.02;2.97;;;;;;;27.18;53.43;100573.03;10490001;28;20040;-59
2023/08/19 21:02:11;;;;;;;8.60;3.42;;;;;;;27.17;54.10;100585.16;10468736;28;20045;-59
2023/08/19 21:07:15;;;;;;;5.72;2.47;;;;;;;27.09;53.71;100600.34;10483804;28;20106;-60
2023/08/19 21:12:16;;;;;;;5.68;2.60;;;;;;;27.01;53.69;100606.47;10482900;28;20516;-59
2023/08/19 21:17:18;;;;;;;3.40;2.60;;;;;;;26.93;54.46;100613.38;10485337;28;20063;-60
2023/08/19 21:22:19;;;;;;;4.65;2.67;;;;;;;26.98;54.79;100607.03;10482222;28;20060;-59
2023/08/19 21:27:21;;;;;;;2.90;2.40;;;;;;;26.99;55.54;100605.91;10475931;28;20052;-58
2023/08/19 21:32:22;;;;;;;4.10;3.22;;;;;;;26.96;55.92;100606.50;10469481;28;20063;-59
2023/08/19 21:37:24;;;;;;;6.65;3.60;;;;;;;26.87;56.32;100609.78;10468631;28;20143;-59
2023/08/19 21:42:25;;;;;;;7.00;3.20;;;;;;;26.79;56.11;100610.34;10478939;28;20066;-59
2023/08/19 21:47:27;;;;;;;5.70;3.42;;;;;;;26.68;56.83;100617.00;10503883;28;20690;-58
2023/08/19 21:52:28;;;;;;;7.93;3.50;;;;;;;26.63;57.28;100622.53;10494734;28;20127;-58
2023/08/19 21:57:30;;;;;;;5.88;3.60;;;;;;;26.53;57.39;100617.81;10497740;28;20073;-59
2023/08/19 22:02:31;;;;;;;4.32;3.00;;;;;;;26.32;57.63;100636.25;10490804;28;20147;-58
2023/08/19 22:07:33;;;;;;;3.75;3.00;;;;;;;26.20;57.76;100636.53;10496876;28;20051;-60
2023/08/19 22:12:34;;;;;;;3.22;2.53;;;;;;;26.06;57.66;100625.19;10495506;28;20036;-58
2023/08/19 22:17:36;;;;;;;6.63;2.92;;;;;;;26.11;57.84;100635.41;10495169;28;20052;-58
2023/08/19 22:22:39;;;;;;;4.18;2.83;;;;;;;26.07;58.12;100632.38;10499450;28;20522;-58
2023/08/19 22:27:40;;;;;;;3.75;3.20;;;;;;;25.99;58.52;100641.19;10498132;28;20060;-57
2023/08/19 22:32:42;;;;;;;6.07;4.22;;;;;;;25.90;59.05;100640.88;10497131;28;20041;-58
2023/08/19 22:37:43;;;;;;;5.60;3.22;;;;;;;25.79;59.23;100641.06;10510793;28;20052;-58
2023/08/19 22:42:44;;;;;;;3.97;3.08;;;;;;;25.73;59.35;100640.22;10497195;28;20504;-57
2023/08/19 22:47:46;;;;;;;8.20;3.42;;;;;;;25.64;60.29;100648.19;10491108;28;20048;-58
2023/08/19 22:52:48;;;;;;;4.88;3.03;;;;;;;25.58;60.29;100638.25;10494536;28;20396;-58
2023/08/19 22:57:49;;;;;;;7.95;3.00;;;;;;;25.51;59.95;100649.53;10497584;28;20040;-57
2023/08/19 23:02:50;;;;;;;3.00;2.70;;;;;;;25.45;60.62;100652.50;10482984;28;20052;-57
2023/08/19 23:07:52;;;;;;;3.97;3.10;;;;;;;25.39;60.80;100648.91;10498908;28;20146;-58